首页
METAR-TAF:

METAR-TAF

机场 :

Borden, 安大略省, 加拿大

纬度: 44-15N, 经度: 079-55W, 海拔: 223米

当前天气观测

该预报发布于15分钟前的10:00 UTC
静风
温度 -24°C
湿度 91%
气压 1026 hPa
能見度: 14.5公里
天空无云

METAR: CYBN 131000Z AUTO 00000KT 9SM CLR M24/M25 A3030 RMK ICG PAST HR SLP283

时间: 05:15 (10:15 UTC)

预报

该预报发布于6小时和58分钟前的03:17 UTC
预报有效从13日的 03点(UTC)到 13日的 12点(UTC)
风速3节,风向多变
能見度: 1.6公里
层高于800英尺
小雪
短暂存在
从 13日的 03点(UTC)到 13日的 05点(UTC)
能見度: 10公里
散云层高于2000英尺
从 13日的 0500点(UTC)
风速3节,风向多变
能見度: 10公里
散云层高于2000英尺
短暂存在
从 13日的 05点(UTC)到 13日的 12点(UTC)
多云层高于2000英尺

TAF: CYBN 130317Z 1303/1312 VRB03KT 1SM -SN VV008 TEMPO 1303/1305 P6SM NSW SCT020 FM130500 VRB03KT P6SM SCT020 TEMPO 1305/1312 BKN020 RMK FCST BASED ON AUTO OBS. NXT FCST BY 130600Z

超过4000个机场的气象观测和天气预报(METAR&TAF报告)。

可查询的气象台以黄色和红色小点在地图上表示。

将鼠标移到小点上方,可查看气象台名称。

然后点击查看天气观测和预报。

如需切换地图:点击带黑十字的绿色按钮放大地图;点击带横线的绿色按钮缩小地图;或者点击绿色箭头查看邻近地区的地图。


METAR-TAF: